sensor_id;sensor_type;location;lat;lon;timestamp;pressure;altitude;pressure_sealevel;temperature;humidity
33155;BME280;19511;42.682;23.332;2023-05-24T00:02:08;95002.03;;;11.67;100.00
33155;BME280;19511;42.682;23.332;2023-05-24T00:04:40;94994.28;;;11.55;100.00
33155;BME280;19511;42.682;23.332;2023-05-24T00:07:10;94997.38;;;11.60;100.00
33155;BME280;19511;42.682;23.332;2023-05-24T00:09:35;94992.66;;;11.57;100.00
33155;BME280;19511;42.682;23.332;2023-05-24T00:12:07;94991.56;;;11.51;100.00
33155;BME280;19511;42.682;23.332;2023-05-24T00:14:33;95000.69;;;11.52;100.00
33155;BME280;19511;42.682;23.332;2023-05-24T00:16:58;94996.81;;;11.46;100.00
33155;BME280;19511;42.682;23.332;2023-05-24T00:19:27;94984.31;;;11.34;100.00
33155;BME280;19511;42.682;23.332;2023-05-24T00:21:57;94984.94;;;11.45;100.00
33155;BME280;19511;42.682;23.332;2023-05-24T00:24:23;94981.22;;;11.32;100.00
33155;BME280;19511;42.682;23.332;2023-05-24T00:26:48;94975.00;;;11.24;100.00
33155;BME280;19511;42.682;23.332;2023-05-24T00:29:14;94989.81;;;11.37;100.00
33155;BME280;19511;42.682;23.332;2023-05-24T00:31:40;94988.00;;;11.27;100.00
33155;BME280;19511;42.682;23.332;2023-05-24T00:34:09;95001.78;;;11.31;100.00
33155;BME280;19511;42.682;23.332;2023-05-24T00:36:36;94995.59;;;11.23;100.00
33155;BME280;19511;42.682;23.332;2023-05-24T00:39:06;94988.09;;;11.20;100.00
33155;BME280;19511;42.682;23.332;2023-05-24T00:41:31;94986.22;;;11.13;100.00
33155;BME280;19511;42.682;23.332;2023-05-24T00:43:57;94982.34;;;11.07;100.00
33155;BME280;19511;42.682;23.332;2023-05-24T00:46:28;95003.69;;;11.10;100.00
33155;BME280;19511;42.682;23.332;2023-05-24T00:48:54;94993.13;;;11.01;100.00
33155;BME280;19511;42.682;23.332;2023-05-24T00:51:21;94986.91;;;10.93;100.00
33155;BME280;19511;42.682;23.332;2023-05-24T00:53:47;95004.63;;;11.00;100.00
33155;BME280;19511;42.682;23.332;2023-05-24T00:56:14;95003.47;;;10.97;100.00
33155;BME280;19511;42.682;23.332;2023-05-24T00:58:40;94943.13;;;10.57;100.00
33155;BME280;19511;42.682;23.332;2023-05-24T01:01:06;95001.56;;;10.90;100.00
33155;BME280;19511;42.682;23.332;2023-05-24T01:03:40;94916.16;;;10.30;100.00
33155;BME280;19511;42.682;23.332;2023-05-24T01:06:07;94996.53;;;10.82;100.00
33155;BME280;19511;42.682;23.332;2023-05-24T01:09:06;95005.63;;;10.82;100.00
33155;BME280;19511;42.682;23.332;2023-05-24T01:16:52;94976.09;;;10.75;100.00
33155;BME280;19511;42.682;23.332;2023-05-24T01:19:47;94997.66;;;10.88;100.00
33155;BME280;19511;42.682;23.332;2023-05-24T01:27:33;95013.59;;;10.76;100.00
33155;BME280;19511;42.682;23.332;2023-05-24T01:30:01;95003.88;;;10.65;100.00
33155;BME280;19511;42.682;23.332;2023-05-24T01:32:27;95016.94;;;10.64;100.00
33155;BME280;19511;42.682;23.332;2023-05-24T01:34:53;95018.94;;;10.60;100.00
33155;BME280;19511;42.682;23.332;2023-05-24T01:37:18;94994.22;;;10.45;100.00
33155;BME280;19511;42.682;23.332;2023-05-24T01:39:44;95013.97;;;10.48;100.00
33155;BME280;19511;42.682;23.332;2023-05-24T01:50:20;94996.75;;;10.29;100.00
33155;BME280;19511;42.682;23.332;2023-05-24T01:52:51;94920.75;;;9.75;100.00
33155;BME280;19511;42.682;23.332;2023-05-24T01:55:18;95012.56;;;10.28;100.00
33155;BME280;19511;42.682;23.332;2023-05-24T01:57:50;95011.78;;;10.28;100.00
33155;BME280;19511;42.682;23.332;2023-05-24T02:00:18;94927.84;;;9.76;100.00
33155;BME280;19511;42.682;23.332;2023-05-24T02:02:47;95008.22;;;10.27;100.00
33155;BME280;19511;42.682;23.332;2023-05-24T02:05:17;95003.13;;;10.26;100.00
33155;BME280;19511;42.682;23.332;2023-05-24T02:07:42;94985.06;;;10.14;100.00
33155;BME280;19511;42.682;23.332;2023-05-24T02:10:08;94930.22;;;9.74;100.00
33155;BME280;19511;42.682;23.332;2023-05-24T02:12:34;95007.44;;;10.27;100.00
33155;BME280;19511;42.682;23.332;2023-05-24T02:14:59;95004.66;;;10.27;100.00
33155;BME280;19511;42.682;23.332;2023-05-24T02:17:29;94997.59;;;10.26;100.00
33155;BME280;19511;42.682;23.332;2023-05-24T02:19:57;94996.03;;;10.25;100.00
33155;BME280;19511;42.682;23.332;2023-05-24T02:22:23;94996.09;;;10.18;100.00
33155;BME280;19511;42.682;23.332;2023-05-24T02:24:49;94977.59;;;10.15;100.00
33155;BME280;19511;42.682;23.332;2023-05-24T02:27:17;94988.91;;;10.24;100.00
33155;BME280;19511;42.682;23.332;2023-05-24T02:29:42;94974.06;;;10.10;100.00
33155;BME280;19511;42.682;23.332;2023-05-24T02:32:12;94988.97;;;10.20;100.00
33155;BME280;19511;42.682;23.332;2023-05-24T02:34:37;94988.44;;;10.33;100.00
33155;BME280;19511;42.682;23.332;2023-05-24T02:37:03;95003.38;;;10.42;100.00
33155;BME280;19511;42.682;23.332;2023-05-24T02:39:29;94997.53;;;10.29;100.00
33155;BME280;19511;42.682;23.332;2023-05-24T02:41:55;94989.00;;;10.17;100.00
33155;BME280;19511;42.682;23.332;2023-05-24T02:44:20;95003.59;;;10.17;100.00
33155;BME280;19511;42.682;23.332;2023-05-24T02:46:46;94992.25;;;10.08;100.00
33155;BME280;19511;42.682;23.332;2023-05-24T02:49:21;94981.34;;;9.93;100.00
33155;BME280;19511;42.682;23.332;2023-05-24T02:51:51;94989.38;;;10.19;100.00
33155;BME280;19511;42.682;23.332;2023-05-24T02:54:17;94995.34;;;10.13;100.00
33155;BME280;19511;42.682;23.332;2023-05-24T02:56:46;94996.25;;;10.03;100.00
33155;BME280;19511;42.682;23.332;2023-05-24T02:59:12;95001.47;;;9.94;100.00
33155;BME280;19511;42.682;23.332;2023-05-24T03:01:41;94904.63;;;9.28;100.00
33155;BME280;19511;42.682;23.332;2023-05-24T03:04:07;94995.56;;;9.92;100.00
33155;BME280;19511;42.682;23.332;2023-05-24T03:06:32;94990.53;;;9.83;100.00
33155;BME280;19511;42.682;23.332;2023-05-24T03:09:01;94990.88;;;9.85;100.00
33155;BME280;19511;42.682;23.332;2023-05-24T03:11:28;95016.03;;;9.98;100.00
33155;BME280;19511;42.682;23.332;2023-05-24T03:13:53;95023.56;;;9.94;100.00
33155;BME280;19511;42.682;23.332;2023-05-24T03:16:21;95027.09;;;9.98;100.00
33155;BME280;19511;42.682;23.332;2023-05-24T03:18:47;95012.16;;;9.92;100.00
33155;BME280;19511;42.682;23.332;2023-05-24T03:21:15;95001.91;;;9.89;100.00
33155;BME280;19511;42.682;23.332;2023-05-24T03:23:41;95011.72;;;9.97;100.00
33155;BME280;19511;42.682;23.332;2023-05-24T03:26:06;94963.81;;;9.69;100.00
33155;BME280;19511;42.682;23.332;2023-05-24T03:28:32;95022.13;;;10.20;100.00
33155;BME280;19511;42.682;23.332;2023-05-24T03:30:58;95026.88;;;10.20;100.00
33155;BME280;19511;42.682;23.332;2023-05-24T03:33:24;95041.06;;;10.22;100.00
33155;BME280;19511;42.682;23.332;2023-05-24T03:35:50;95028.00;;;10.26;100.00
33155;BME280;19511;42.682;23.332;2023-05-24T03:38:19;95021.31;;;10.23;100.00
33155;BME280;19511;42.682;23.332;2023-05-24T03:40:45;95029.16;;;10.28;100.00
33155;BME280;19511;42.682;23.332;2023-05-24T03:43:17;95025.16;;;10.33;100.00
33155;BME280;19511;42.682;23.332;2023-05-24T03:45:42;95033.72;;;10.46;100.00
33155;BME280;19511;42.682;23.332;2023-05-24T03:48:08;94974.75;;;10.18;100.00
33155;BME280;19511;42.682;23.332;2023-05-24T03:50:34;94953.88;;;10.17;100.00
33155;BME280;19511;42.682;23.332;2023-05-24T03:53:00;95035.53;;;10.94;100.00
33155;BME280;19511;42.682;23.332;2023-05-24T03:55:33;95032.50;;;11.13;100.00
33155;BME280;19511;42.682;23.332;2023-05-24T03:57:58;95027.41;;;11.11;100.00
33155;BME280;19511;42.682;23.332;2023-05-24T04:00:24;94978.28;;;10.88;100.00
33155;BME280;19511;42.682;23.332;2023-05-24T04:02:51;94956.97;;;10.85;100.00
33155;BME280;19511;42.682;23.332;2023-05-24T04:05:18;95033.59;;;11.46;100.00
33155;BME280;19511;42.682;23.332;2023-05-24T04:07:44;95025.28;;;11.73;100.00
33155;BME280;19511;42.682;23.332;2023-05-24T04:10:10;95031.03;;;12.30;100.00
33155;BME280;19511;42.682;23.332;2023-05-24T04:12:45;95029.44;;;12.53;100.00
33155;BME280;19511;42.682;23.332;2023-05-24T04:15:11;94955.50;;;12.02;100.00
33155;BME280;19511;42.682;23.332;2023-05-24T04:17:43;95027.16;;;12.48;100.00
33155;BME280;19511;42.682;23.332;2023-05-24T04:20:11;95029.00;;;12.74;100.00
33155;BME280;19511;42.682;23.332;2023-05-24T04:22:38;95034.91;;;12.77;100.00
33155;BME280;19511;42.682;23.332;2023-05-24T04:25:08;95000.91;;;12.52;100.00
33155;BME280;19511;42.682;23.332;2023-05-24T04:27:37;95028.94;;;12.58;100.00
33155;BME280;19511;42.682;23.332;2023-05-24T04:30:07;95030.00;;;12.64;100.00
33155;BME280;19511;42.682;23.332;2023-05-24T04:32:33;95025.94;;;12.49;100.00
33155;BME280;19511;42.682;23.332;2023-05-24T04:35:00;95015.56;;;12.53;100.00
33155;BME280;19511;42.682;23.332;2023-05-24T04:37:27;95034.22;;;12.72;100.00
33155;BME280;19511;42.682;23.332;2023-05-24T04:39:58;95032.16;;;12.77;100.00
33155;BME280;19511;42.682;23.332;2023-05-24T04:42:23;94988.94;;;12.35;100.00
33155;BME280;19511;42.682;23.332;2023-05-24T04:44:49;95049.34;;;12.68;100.00
33155;BME280;19511;42.682;23.332;2023-05-24T04:47:14;94977.72;;;12.43;100.00
33155;BME280;19511;42.682;23.332;2023-05-24T04:49:40;95022.25;;;12.76;100.00
33155;BME280;19511;42.682;23.332;2023-05-24T04:52:06;95047.59;;;12.98;100.00
33155;BME280;19511;42.682;23.332;2023-05-24T04:54:35;95028.47;;;13.00;100.00
33155;BME280;19511;42.682;23.332;2023-05-24T04:57:01;95021.41;;;13.15;100.00
33155;BME280;19511;42.682;23.332;2023-05-24T04:59:26;95044.41;;;13.16;100.00
33155;BME280;19511;42.682;23.332;2023-05-24T05:01:51;95051.69;;;13.10;100.00
33155;BME280;19511;42.682;23.332;2023-05-24T05:04:17;95051.31;;;13.07;100.00
33155;BME280;19511;42.682;23.332;2023-05-24T05:06:43;95051.72;;;13.26;100.00
33155;BME280;19511;42.682;23.332;2023-05-24T05:09:15;94989.88;;;12.89;100.00
33155;BME280;19511;42.682;23.332;2023-05-24T05:11:40;95044.75;;;13.38;100.00
33155;BME280;19511;42.682;23.332;2023-05-24T05:14:06;95051.38;;;13.61;100.00
33155;BME280;19511;42.682;23.332;2023-05-24T05:16:38;95040.88;;;13.68;100.00
33155;BME280;19511;42.682;23.332;2023-05-24T05:19:04;95054.63;;;13.92;100.00
33155;BME280;19511;42.682;23.332;2023-05-24T05:21:30;95047.50;;;13.91;100.00
33155;BME280;19511;42.682;23.332;2023-05-24T05:23:59;95051.66;;;14.16;100.00
33155;BME280;19511;42.682;23.332;2023-05-24T05:26:28;95049.72;;;14.29;100.00
33155;BME280;19511;42.682;23.332;2023-05-24T05:28:55;95053.34;;;14.43;100.00
33155;BME280;19511;42.682;23.332;2023-05-24T05:31:21;95059.41;;;14.54;100.00
33155;BME280;19511;42.682;23.332;2023-05-24T05:33:46;95019.81;;;14.17;100.00
33155;BME280;19511;42.682;23.332;2023-05-24T05:36:13;95054.22;;;14.40;100.00
33155;BME280;19511;42.682;23.332;2023-05-24T05:38:38;95046.06;;;14.32;100.00
33155;BME280;19511;42.682;23.332;2023-05-24T05:41:08;95048.91;;;14.45;100.00
33155;BME280;19511;42.682;23.332;2023-05-24T05:43:39;95056.25;;;14.68;100.00
33155;BME280;19511;42.682;23.332;2023-05-24T05:46:05;95046.69;;;14.69;100.00
33155;BME280;19511;42.682;23.332;2023-05-24T05:48:31;95051.31;;;14.89;100.00
33155;BME280;19511;42.682;23.332;2023-05-24T05:51:02;95057.16;;;15.08;100.00
33155;BME280;19511;42.682;23.332;2023-05-24T05:53:28;95057.38;;;15.13;100.00
33155;BME280;19511;42.682;23.332;2023-05-24T05:55:54;95057.84;;;15.12;100.00
33155;BME280;19511;42.682;23.332;2023-05-24T05:58:20;95055.63;;;15.32;100.00
33155;BME280;19511;42.682;23.332;2023-05-24T06:00:45;95064.91;;;15.42;100.00
33155;BME280;19511;42.682;23.332;2023-05-24T06:03:11;95058.56;;;15.42;100.00
33155;BME280;19511;42.682;23.332;2023-05-24T06:05:36;95060.44;;;15.58;100.00
33155;BME280;19511;42.682;23.332;2023-05-24T06:08:01;95057.78;;;15.80;100.00
33155;BME280;19511;42.682;23.332;2023-05-24T06:10:27;95060.47;;;15.71;100.00
33155;BME280;19511;42.682;23.332;2023-05-24T06:12:52;95053.91;;;15.64;100.00
33155;BME280;19511;42.682;23.332;2023-05-24T06:15:18;95059.13;;;15.75;100.00
33155;BME280;19511;42.682;23.332;2023-05-24T06:17:46;95062.94;;;15.94;100.00
33155;BME280;19511;42.682;23.332;2023-05-24T06:20:12;95050.97;;;16.07;100.00
33155;BME280;19511;42.682;23.332;2023-05-24T06:22:40;95061.91;;;16.14;100.00
33155;BME280;19511;42.682;23.332;2023-05-24T06:25:07;95063.56;;;16.24;100.00
33155;BME280;19511;42.682;23.332;2023-05-24T06:27:33;95052.13;;;16.44;100.00
33155;BME280;19511;42.682;23.332;2023-05-24T06:29:58;95030.38;;;16.39;100.00
33155;BME280;19511;42.682;23.332;2023-05-24T06:32:24;95051.50;;;16.62;100.00
33155;BME280;19511;42.682;23.332;2023-05-24T06:34:49;95048.91;;;16.68;100.00
33155;BME280;19511;42.682;23.332;2023-05-24T06:37:15;95035.59;;;16.72;100.00
33155;BME280;19511;42.682;23.332;2023-05-24T06:39:44;95053.03;;;16.98;100.00
33155;BME280;19511;42.682;23.332;2023-05-24T06:42:10;95049.72;;;17.13;100.00
33155;BME280;19511;42.682;23.332;2023-05-24T06:44:36;95023.41;;;17.01;100.00
33155;BME280;19511;42.682;23.332;2023-05-24T06:47:03;94980.44;;;16.86;100.00
33155;BME280;19511;42.682;23.332;2023-05-24T06:49:29;95041.63;;;17.37;100.00
33155;BME280;19511;42.682;23.332;2023-05-24T06:51:55;95041.88;;;17.52;100.00
33155;BME280;19511;42.682;23.332;2023-05-24T06:54:20;95031.03;;;17.63;100.00
33155;BME280;19511;42.682;23.332;2023-05-24T06:56:46;95049.91;;;17.82;100.00
33155;BME280;19511;42.682;23.332;2023-05-24T06:59:12;95033.44;;;17.84;100.00
33155;BME280;19511;42.682;23.332;2023-05-24T07:01:41;95034.94;;;18.07;100.00
33155;BME280;19511;42.682;23.332;2023-05-24T07:04:15;95022.19;;;18.06;100.00
33155;BME280;19511;42.682;23.332;2023-05-24T07:06:40;95037.47;;;18.23;100.00
33155;BME280;19511;42.682;23.332;2023-05-24T07:09:05;95029.06;;;18.23;100.00
33155;BME280;19511;42.682;23.332;2023-05-24T07:11:31;95027.03;;;18.33;100.00
33155;BME280;19511;42.682;23.332;2023-05-24T07:13:56;95033.28;;;18.56;100.00
33155;BME280;19511;42.682;23.332;2023-05-24T07:16:22;95032.50;;;18.46;100.00
33155;BME280;19511;42.682;23.332;2023-05-24T07:18:48;95037.19;;;18.49;100.00
33155;BME280;19511;42.682;23.332;2023-05-24T07:21:13;95049.94;;;18.59;100.00
33155;BME280;19511;42.682;23.332;2023-05-24T07:23:38;95030.94;;;18.64;100.00
33155;BME280;19511;42.682;23.332;2023-05-24T07:26:07;95041.84;;;18.71;100.00
33155;BME280;19511;42.682;23.332;2023-05-24T07:28:44;95033.44;;;18.89;100.00
33155;BME280;19511;42.682;23.332;2023-05-24T07:31:10;95036.25;;;19.08;100.00
33155;BME280;19511;42.682;23.332;2023-05-24T07:33:39;94978.03;;;18.75;100.00
33155;BME280;19511;42.682;23.332;2023-05-24T07:36:06;95039.94;;;19.23;100.00
33155;BME280;19511;42.682;23.332;2023-05-24T07:38:33;95037.78;;;19.28;100.00
33155;BME280;19511;42.682;23.332;2023-05-24T07:41:03;95039.00;;;19.36;100.00
33155;BME280;19511;42.682;23.332;2023-05-24T07:43:30;95033.38;;;19.36;100.00
33155;BME280;19511;42.682;23.332;2023-05-24T07:45:56;95038.97;;;19.54;100.00
33155;BME280;19511;42.682;23.332;2023-05-24T07:48:22;95044.53;;;19.64;100.00
33155;BME280;19511;42.682;23.332;2023-05-24T07:50:49;95048.72;;;19.68;100.00
33155;BME280;19511;42.682;23.332;2023-05-24T07:53:17;95039.66;;;19.73;100.00
33155;BME280;19511;42.682;23.332;2023-05-24T07:55:42;95027.19;;;19.74;100.00
33155;BME280;19511;42.682;23.332;2023-05-24T07:58:15;95029.16;;;19.93;100.00
33155;BME280;19511;42.682;23.332;2023-05-24T08:00:45;95027.69;;;20.06;100.00
33155;BME280;19511;42.682;23.332;2023-05-24T08:03:14;95013.66;;;20.06;100.00
33155;BME280;19511;42.682;23.332;2023-05-24T08:05:41;95021.41;;;20.36;100.00
33155;BME280;19511;42.682;23.332;2023-05-24T08:08:07;95001.09;;;20.41;100.00
33155;BME280;19511;42.682;23.332;2023-05-24T08:10:32;94991.31;;;20.76;100.00
33155;BME280;19511;42.682;23.332;2023-05-24T08:13:04;95024.31;;;21.05;100.00
33155;BME280;19511;42.682;23.332;2023-05-24T08:15:33;95014.84;;;21.17;100.00
33155;BME280;19511;42.682;23.332;2023-05-24T08:17:58;95026.19;;;21.23;100.00
33155;BME280;19511;42.682;23.332;2023-05-24T08:20:24;95015.44;;;21.07;100.00
33155;BME280;19511;42.682;23.332;2023-05-24T08:22:49;95016.09;;;21.16;100.00
33155;BME280;19511;42.682;23.332;2023-05-24T08:25:19;95004.56;;;21.29;92.63
33155;BME280;19511;42.682;23.332;2023-05-24T08:27:45;95010.66;;;21.28;93.62
33155;BME280;19511;42.682;23.332;2023-05-24T08:30:14;94987.50;;;21.03;90.25
33155;BME280;19511;42.682;23.332;2023-05-24T08:32:39;95006.22;;;21.21;91.78
33155;BME280;19511;42.682;23.332;2023-05-24T08:35:08;95017.56;;;21.57;94.01
33155;BME280;19511;42.682;23.332;2023-05-24T08:37:34;94957.22;;;21.43;91.76
33155;BME280;19511;42.682;23.332;2023-05-24T08:39:59;95004.28;;;21.93;93.69
33155;BME280;19511;42.682;23.332;2023-05-24T08:42:27;95003.50;;;22.07;95.33
33155;BME280;19511;42.682;23.332;2023-05-24T08:45:07;94940.22;;;21.88;90.64
33155;BME280;19511;42.682;23.332;2023-05-24T08:47:35;95006.09;;;22.46;92.05
33155;BME280;19511;42.682;23.332;2023-05-24T08:50:01;95000.59;;;22.58;85.65
33155;BME280;19511;42.682;23.332;2023-05-24T08:52:28;94965.34;;;22.27;86.35
33155;BME280;19511;42.682;23.332;2023-05-24T08:54:54;95011.44;;;22.65;88.16
33155;BME280;19511;42.682;23.332;2023-05-24T08:57:25;95003.69;;;22.60;90.79
33155;BME280;19511;42.682;23.332;2023-05-24T08:59:50;95005.25;;;22.61;90.88
33155;BME280;19511;42.682;23.332;2023-05-24T09:02:17;95013.53;;;22.70;90.98
33155;BME280;19511;42.682;23.332;2023-05-24T09:04:48;95005.78;;;22.65;89.62
33155;BME280;19511;42.682;23.332;2023-05-24T09:07:20;94997.78;;;22.58;89.96
33155;BME280;19511;42.682;23.332;2023-05-24T09:09:56;95002.97;;;22.86;89.26
33155;BME280;19511;42.682;23.332;2023-05-24T09:12:22;94994.47;;;23.06;85.77
33155;BME280;19511;42.682;23.332;2023-05-24T09:14:48;94989.09;;;23.08;82.69
33155;BME280;19511;42.682;23.332;2023-05-24T09:17:14;95000.78;;;23.22;84.47
33155;BME280;19511;42.682;23.332;2023-05-24T09:19:44;94993.56;;;23.15;80.06
33155;BME280;19511;42.682;23.332;2023-05-24T09:22:15;94998.03;;;23.27;83.02
33155;BME280;19511;42.682;23.332;2023-05-24T09:24:46;95006.75;;;23.29;76.04
33155;BME280;19511;42.682;23.332;2023-05-24T09:27:19;95000.09;;;23.06;79.69
33155;BME280;19511;42.682;23.332;2023-05-24T09:29:48;95000.34;;;23.29;82.55
33155;BME280;19511;42.682;23.332;2023-05-24T09:32:16;94982.97;;;23.36;78.06
33155;BME280;19511;42.682;23.332;2023-05-24T09:34:46;94921.66;;;22.84;79.34
33155;BME280;19511;42.682;23.332;2023-05-24T09:37:16;94988.44;;;23.45;74.97
33155;BME280;19511;42.682;23.332;2023-05-24T09:39:46;94928.53;;;23.04;78.78
33155;BME280;19511;42.682;23.332;2023-05-24T09:42:16;94948.19;;;23.19;79.25
33155;BME280;19511;42.682;23.332;2023-05-24T09:44:48;94928.34;;;23.13;76.02
33155;BME280;19511;42.682;23.332;2023-05-24T09:47:14;94974.97;;;23.61;80.24
33155;BME280;19511;42.682;23.332;2023-05-24T09:49:42;94986.75;;;23.59;74.22
33155;BME280;19511;42.682;23.332;2023-05-24T09:52:13;94969.56;;;23.31;73.02
33155;BME280;19511;42.682;23.332;2023-05-24T09:54:38;94979.50;;;23.53;73.68
33155;BME280;19511;42.682;23.332;2023-05-24T09:57:05;94985.28;;;23.70;72.79
33155;BME280;19511;42.682;23.332;2023-05-24T09:59:39;94983.94;;;23.91;70.61
33155;BME280;19511;42.682;23.332;2023-05-24T10:02:11;94980.13;;;24.00;63.46
33155;BME280;19511;42.682;23.332;2023-05-24T10:04:40;94975.78;;;24.05;61.03
33155;BME280;19511;42.682;23.332;2023-05-24T10:07:09;94969.88;;;24.03;64.36
33155;BME280;19511;42.682;23.332;2023-05-24T10:09:36;94982.47;;;24.07;71.19
33155;BME280;19511;42.682;23.332;2023-05-24T10:12:03;94918.97;;;23.91;72.15
33155;BME280;19511;42.682;23.332;2023-05-24T10:14:34;94906.19;;;24.02;70.09
33155;BME280;19511;42.682;23.332;2023-05-24T10:17:06;94944.69;;;24.05;68.50
33155;BME280;19511;42.682;23.332;2023-05-24T10:19:32;94958.94;;;24.27;71.67
33155;BME280;19511;42.682;23.332;2023-05-24T10:22:05;94968.97;;;24.23;70.21
33155;BME280;19511;42.682;23.332;2023-05-24T10:24:37;94967.66;;;24.24;65.03
33155;BME280;19511;42.682;23.332;2023-05-24T10:27:13;94964.41;;;24.42;71.24
33155;BME280;19511;42.682;23.332;2023-05-24T10:32:12;94956.97;;;24.39;67.67
33155;BME280;19511;42.682;23.332;2023-05-24T10:34:41;94960.53;;;24.34;72.00
33155;BME280;19511;42.682;23.332;2023-05-24T10:37:20;94947.47;;;24.42;68.86
33155;BME280;19511;42.682;23.332;2023-05-24T10:39:49;94952.47;;;24.70;69.59
33155;BME280;19511;42.682;23.332;2023-05-24T10:42:15;94922.34;;;24.56;69.17
33155;BME280;19511;42.682;23.332;2023-05-24T10:44:42;94916.44;;;24.59;71.61
33155;BME280;19511;42.682;23.332;2023-05-24T10:47:13;94935.81;;;24.95;64.26
33155;BME280;19511;42.682;23.332;2023-05-24T10:49:55;94929.09;;;24.70;63.62
33155;BME280;19511;42.682;23.332;2023-05-24T10:52:35;94927.81;;;24.76;72.07
33155;BME280;19511;42.682;23.332;2023-05-24T10:55:06;94846.22;;;24.41;66.88
33155;BME280;19511;42.682;23.332;2023-05-24T10:57:34;94929.13;;;24.81;64.24
33155;BME280;19511;42.682;23.332;2023-05-24T11:02:48;94919.34;;;24.93;64.46
33155;BME280;19511;42.682;23.332;2023-05-24T11:05:18;94924.00;;;25.14;68.75
33155;BME280;19511;42.682;23.332;2023-05-24T11:07:48;94918.34;;;25.25;67.61
33155;BME280;19511;42.682;23.332;2023-05-24T11:10:30;94910.34;;;25.06;70.13
33155;BME280;19511;42.682;23.332;2023-05-24T11:13:01;94913.69;;;24.88;60.43
33155;BME280;19511;42.682;23.332;2023-05-24T11:15:32;94861.88;;;24.36;59.99
33155;BME280;19511;42.682;23.332;2023-05-24T11:20:43;94920.09;;;24.88;61.49
33155;BME280;19511;42.682;23.332;2023-05-24T11:23:15;94914.63;;;24.62;63.97
33155;BME280;19511;42.682;23.332;2023-05-24T11:25:41;94915.94;;;24.67;68.12
33155;BME280;19511;42.682;23.332;2023-05-24T11:28:10;94915.47;;;24.91;62.51
33155;BME280;19511;42.682;23.332;2023-05-24T11:30:44;94919.31;;;24.76;62.42
33155;BME280;19511;42.682;23.332;2023-05-24T11:33:20;94898.72;;;24.70;61.58
33155;BME280;19511;42.682;23.332;2023-05-24T11:35:50;94910.09;;;24.93;59.59
33155;BME280;19511;42.682;23.332;2023-05-24T11:38:20;94900.34;;;25.05;65.97
33155;BME280;19511;42.682;23.332;2023-05-24T11:40:47;94891.06;;;25.16;64.46
33155;BME280;19511;42.682;23.332;2023-05-24T11:43:18;94894.16;;;25.30;60.04
33155;BME280;19511;42.682;23.332;2023-05-24T11:45:52;94895.69;;;25.02;60.49
33155;BME280;19511;42.682;23.332;2023-05-24T11:48:30;94893.66;;;25.08;67.40
33155;BME280;19511;42.682;23.332;2023-05-24T11:51:01;94880.53;;;25.11;65.76
33155;BME280;19511;42.682;23.332;2023-05-24T11:53:32;94880.00;;;25.24;63.19
33155;BME280;19511;42.682;23.332;2023-05-24T11:55:58;94872.28;;;25.19;57.24
33155;BME280;19511;42.682;23.332;2023-05-24T11:58:47;94885.16;;;25.37;59.90
33155;BME280;19511;42.682;23.332;2023-05-24T12:01:25;94886.19;;;25.17;58.91
33155;BME280;19511;42.682;23.332;2023-05-24T12:03:51;94867.91;;;25.06;59.66
33155;BME280;19511;42.682;23.332;2023-05-24T12:06:18;94886.19;;;25.39;62.28
33155;BME280;19511;42.682;23.332;2023-05-24T12:08:53;94883.63;;;25.53;59.20
33155;BME280;19511;42.682;23.332;2023-05-24T12:11:24;94869.94;;;25.68;60.36
33155;BME280;19511;42.682;23.332;2023-05-24T12:13:50;94868.09;;;25.88;58.76
33155;BME280;19511;42.682;23.332;2023-05-24T12:16:24;94846.75;;;25.70;54.70
33155;BME280;19511;42.682;23.332;2023-05-24T12:18:54;94866.03;;;25.94;57.03
33155;BME280;19511;42.682;23.332;2023-05-24T12:21:32;94858.59;;;25.85;57.03
33155;BME280;19511;42.682;23.332;2023-05-24T12:24:13;94868.59;;;25.92;59.04
33155;BME280;19511;42.682;23.332;2023-05-24T12:26:43;94853.72;;;25.74;60.07
33155;BME280;19511;42.682;23.332;2023-05-24T12:29:18;94847.53;;;25.82;59.03
33155;BME280;19511;42.682;23.332;2023-05-24T12:31:48;94848.00;;;25.86;56.99
33155;BME280;19511;42.682;23.332;2023-05-24T12:34:18;94828.00;;;25.61;57.39
33155;BME280;19511;42.682;23.332;2023-05-24T12:36:58;94848.78;;;25.86;63.84
33155;BME280;19511;42.682;23.332;2023-05-24T12:39:28;94858.81;;;25.93;59.25
33155;BME280;19511;42.682;23.332;2023-05-24T12:42:00;94792.44;;;25.71;63.38
33155;BME280;19511;42.682;23.332;2023-05-24T12:44:30;94828.88;;;26.03;57.00
33155;BME280;19511;42.682;23.332;2023-05-24T12:47:01;94834.28;;;26.13;59.06
33155;BME280;19511;42.682;23.332;2023-05-24T12:49:36;94835.84;;;26.14;59.18
33155;BME280;19511;42.682;23.332;2023-05-24T12:52:05;94827.31;;;26.14;52.31
33155;BME280;19511;42.682;23.332;2023-05-24T12:54:31;94831.88;;;26.28;56.30
33155;BME280;19511;42.682;23.332;2023-05-24T12:56:58;94828.69;;;26.49;58.95
33155;BME280;19511;42.682;23.332;2023-05-24T12:59:33;94828.59;;;26.66;57.10
33155;BME280;19511;42.682;23.332;2023-05-24T13:02:02;94819.25;;;26.35;57.75
33155;BME280;19511;42.682;23.332;2023-05-24T13:04:35;94815.38;;;26.32;62.18
33155;BME280;19511;42.682;23.332;2023-05-24T13:07:08;94822.63;;;26.22;65.31
33155;BME280;19511;42.682;23.332;2023-05-24T13:09:35;94819.78;;;26.28;63.12
33155;BME280;19511;42.682;23.332;2023-05-24T13:12:06;94819.09;;;26.04;65.69
33155;BME280;19511;42.682;23.332;2023-05-24T13:14:38;94806.00;;;25.96;67.99
33155;BME280;19511;42.682;23.332;2023-05-24T13:17:08;94760.03;;;25.61;69.25
33155;BME280;19511;42.682;23.332;2023-05-24T13:19:43;94813.03;;;25.78;66.83